sensor_id;sensor_type;location;lat;lon;timestamp;P1;durP1;ratioP1;P2;durP2;ratioP2
34142;SDS011;20419;10.658;106.724;2023-03-23T00:01:53;5.45;;;3.60;;
34142;SDS011;20419;10.658;106.724;2023-03-23T00:04:23;5.05;;;3.38;;
34142;SDS011;20419;10.658;106.724;2023-03-23T00:06:51;6.40;;;3.85;;
34142;SDS011;20419;10.658;106.724;2023-03-23T00:09:18;5.57;;;3.83;;
34142;SDS011;20419;10.658;106.724;2023-03-23T00:11:49;6.65;;;3.65;;
34142;SDS011;20419;10.658;106.724;2023-03-23T00:14:17;4.95;;;3.50;;
34142;SDS011;20419;10.658;106.724;2023-03-23T00:16:48;6.95;;;3.60;;
34142;SDS011;20419;10.658;106.724;2023-03-23T00:19:16;5.35;;;3.55;;
34142;SDS011;20419;10.658;106.724;2023-03-23T00:21:47;5.15;;;3.30;;
34142;SDS011;20419;10.658;106.724;2023-03-23T00:24:20;5.75;;;3.60;;
34142;SDS011;20419;10.658;106.724;2023-03-23T00:26:47;4.65;;;3.47;;
34142;SDS011;20419;10.658;106.724;2023-03-23T00:29:18;5.15;;;3.50;;
34142;SDS011;20419;10.658;106.724;2023-03-23T00:31:47;5.68;;;3.78;;
34142;SDS011;20419;10.658;106.724;2023-03-23T00:34:15;6.38;;;4.30;;
34142;SDS011;20419;10.658;106.724;2023-03-23T00:36:52;5.03;;;3.85;;
34142;SDS011;20419;10.658;106.724;2023-03-23T00:39:22;5.35;;;3.90;;
34142;SDS011;20419;10.658;106.724;2023-03-23T00:41:52;4.68;;;3.72;;
34142;SDS011;20419;10.658;106.724;2023-03-23T00:44:26;7.05;;;3.95;;
34142;SDS011;20419;10.658;106.724;2023-03-23T00:46:54;6.65;;;3.50;;
34142;SDS011;20419;10.658;106.724;2023-03-23T00:49:22;5.93;;;3.45;;
34142;SDS011;20419;10.658;106.724;2023-03-23T00:51:53;5.07;;;3.80;;
34142;SDS011;20419;10.658;106.724;2023-03-23T00:54:21;4.90;;;3.55;;
34142;SDS011;20419;10.658;106.724;2023-03-23T00:56:52;5.18;;;3.75;;
34142;SDS011;20419;10.658;106.724;2023-03-23T00:59:19;5.20;;;3.92;;
34142;SDS011;20419;10.658;106.724;2023-03-23T01:01:47;5.00;;;3.75;;
34142;SDS011;20419;10.658;106.724;2023-03-23T01:04:15;5.82;;;3.75;;
34142;SDS011;20419;10.658;106.724;2023-03-23T01:06:43;5.05;;;3.55;;
34142;SDS011;20419;10.658;106.724;2023-03-23T01:09:11;4.77;;;3.43;;
34142;SDS011;20419;10.658;106.724;2023-03-23T01:11:45;6.35;;;4.05;;
34142;SDS011;20419;10.658;106.724;2023-03-23T01:14:30;5.28;;;3.38;;
34142;SDS011;20419;10.658;106.724;2023-03-23T01:16:57;5.05;;;3.88;;
34142;SDS011;20419;10.658;106.724;2023-03-23T01:19:24;4.90;;;3.65;;
34142;SDS011;20419;10.658;106.724;2023-03-23T01:21:51;5.43;;;3.85;;
34142;SDS011;20419;10.658;106.724;2023-03-23T01:24:18;4.90;;;3.38;;
34142;SDS011;20419;10.658;106.724;2023-03-23T01:27:06;4.68;;;3.42;;
34142;SDS011;20419;10.658;106.724;2023-03-23T01:29:33;4.20;;;3.35;;
34142;SDS011;20419;10.658;106.724;2023-03-23T01:35:22;5.93;;;3.63;;
34142;SDS011;20419;10.658;106.724;2023-03-23T01:37:49;5.90;;;3.38;;
34142;SDS011;20419;10.658;106.724;2023-03-23T01:40:16;5.90;;;3.55;;
34142;SDS011;20419;10.658;106.724;2023-03-23T01:42:43;4.20;;;3.38;;
34142;SDS011;20419;10.658;106.724;2023-03-23T01:47:47;5.38;;;3.50;;
34142;SDS011;20419;10.658;106.724;2023-03-23T01:50:16;5.28;;;3.40;;
34142;SDS011;20419;10.658;106.724;2023-03-23T01:52:43;5.65;;;4.05;;
34142;SDS011;20419;10.658;106.724;2023-03-23T01:55:11;4.68;;;3.80;;
34142;SDS011;20419;10.658;106.724;2023-03-23T01:57:40;4.95;;;3.65;;
34142;SDS011;20419;10.658;106.724;2023-03-23T02:00:11;5.38;;;3.38;;
34142;SDS011;20419;10.658;106.724;2023-03-23T02:02:45;4.45;;;3.17;;
34142;SDS011;20419;10.658;106.724;2023-03-23T02:05:32;5.22;;;3.42;;
34142;SDS011;20419;10.658;106.724;2023-03-23T02:08:00;5.70;;;3.75;;
34142;SDS011;20419;10.658;106.724;2023-03-23T02:10:30;5.47;;;4.10;;
34142;SDS011;20419;10.658;106.724;2023-03-23T02:13:00;5.40;;;3.78;;
34142;SDS011;20419;10.658;106.724;2023-03-23T02:15:32;5.13;;;3.60;;
34142;SDS011;20419;10.658;106.724;2023-03-23T02:18:07;4.93;;;3.63;;
34142;SDS011;20419;10.658;106.724;2023-03-23T02:36:41;4.97;;;3.53;;
34142;SDS011;20419;10.658;106.724;2023-03-23T02:41:45;5.38;;;3.33;;
34142;SDS011;20419;10.658;106.724;2023-03-23T02:44:12;4.28;;;3.00;;
34142;SDS011;20419;10.658;106.724;2023-03-23T02:46:40;5.75;;;2.95;;
34142;SDS011;20419;10.658;106.724;2023-03-23T02:49:08;4.47;;;3.28;;
34142;SDS011;20419;10.658;106.724;2023-03-23T02:51:36;6.72;;;3.78;;
34142;SDS011;20419;10.658;106.724;2023-03-23T02:54:03;4.85;;;3.40;;
34142;SDS011;20419;10.658;106.724;2023-03-23T02:56:31;4.63;;;3.40;;
34142;SDS011;20419;10.658;106.724;2023-03-23T02:58:58;6.25;;;3.88;;
34142;SDS011;20419;10.658;106.724;2023-03-23T03:03:58;4.60;;;3.42;;
34142;SDS011;20419;10.658;106.724;2023-03-23T03:06:45;9.10;;;3.35;;
34142;SDS011;20419;10.658;106.724;2023-03-23T03:09:30;4.43;;;3.17;;
34142;SDS011;20419;10.658;106.724;2023-03-23T03:12:03;4.93;;;3.15;;
34142;SDS011;20419;10.658;106.724;2023-03-23T03:14:42;4.90;;;2.97;;
34142;SDS011;20419;10.658;106.724;2023-03-23T03:17:16;5.30;;;3.13;;
34142;SDS011;20419;10.658;106.724;2023-03-23T03:19:46;5.00;;;3.20;;
34142;SDS011;20419;10.658;106.724;2023-03-23T03:22:15;4.53;;;3.30;;
34142;SDS011;20419;10.658;106.724;2023-03-23T03:24:43;3.95;;;2.88;;
34142;SDS011;20419;10.658;106.724;2023-03-23T03:27:11;5.38;;;3.33;;
34142;SDS011;20419;10.658;106.724;2023-03-23T03:29:42;5.63;;;2.70;;
34142;SDS011;20419;10.658;106.724;2023-03-23T03:32:12;6.78;;;3.67;;
34142;SDS011;20419;10.658;106.724;2023-03-23T03:34:40;5.20;;;3.63;;
34142;SDS011;20419;10.658;106.724;2023-03-23T03:37:08;5.30;;;3.20;;
34142;SDS011;20419;10.658;106.724;2023-03-23T03:42:06;4.55;;;2.88;;
34142;SDS011;20419;10.658;106.724;2023-03-23T03:44:33;5.07;;;3.13;;
34142;SDS011;20419;10.658;106.724;2023-03-23T03:47:00;4.63;;;3.05;;
34142;SDS011;20419;10.658;106.724;2023-03-23T03:49:27;4.53;;;3.20;;
34142;SDS011;20419;10.658;106.724;2023-03-23T03:51:54;4.72;;;3.22;;
34142;SDS011;20419;10.658;106.724;2023-03-23T03:54:21;3.50;;;2.63;;
34142;SDS011;20419;10.658;106.724;2023-03-23T03:56:48;4.32;;;2.90;;
34142;SDS011;20419;10.658;106.724;2023-03-23T03:59:17;5.20;;;3.08;;
34142;SDS011;20419;10.658;106.724;2023-03-23T04:01:44;4.68;;;3.15;;
34142;SDS011;20419;10.658;106.724;2023-03-23T04:04:11;4.35;;;2.78;;
34142;SDS011;20419;10.658;106.724;2023-03-23T04:06:37;4.35;;;2.97;;
34142;SDS011;20419;10.658;106.724;2023-03-23T04:09:05;4.05;;;3.03;;
34142;SDS011;20419;10.658;106.724;2023-03-23T04:11:32;4.68;;;3.08;;
34142;SDS011;20419;10.658;106.724;2023-03-23T04:13:59;5.63;;;3.13;;
34142;SDS011;20419;10.658;106.724;2023-03-23T04:16:27;4.85;;;3.72;;
34142;SDS011;20419;10.658;106.724;2023-03-23T04:18:55;3.80;;;3.00;;
34142;SDS011;20419;10.658;106.724;2023-03-23T04:21:22;5.15;;;2.78;;
34142;SDS011;20419;10.658;106.724;2023-03-23T04:23:49;6.22;;;3.22;;
34142;SDS011;20419;10.658;106.724;2023-03-23T04:26:16;4.95;;;3.20;;
34142;SDS011;20419;10.658;106.724;2023-03-23T04:28:43;5.03;;;3.25;;
34142;SDS011;20419;10.658;106.724;2023-03-23T04:31:10;4.40;;;2.95;;
34142;SDS011;20419;10.658;106.724;2023-03-23T04:33:38;3.63;;;2.95;;
34142;SDS011;20419;10.658;106.724;2023-03-23T04:36:06;3.87;;;2.97;;
34142;SDS011;20419;10.658;106.724;2023-03-23T04:38:33;5.15;;;3.05;;
34142;SDS011;20419;10.658;106.724;2023-03-23T04:41:01;5.30;;;2.90;;
34142;SDS011;20419;10.658;106.724;2023-03-23T04:43:29;4.80;;;2.72;;
34142;SDS011;20419;10.658;106.724;2023-03-23T04:45:58;4.25;;;2.83;;
34142;SDS011;20419;10.658;106.724;2023-03-23T04:48:28;5.95;;;3.17;;
34142;SDS011;20419;10.658;106.724;2023-03-23T04:50:58;5.07;;;2.60;;
34142;SDS011;20419;10.658;106.724;2023-03-23T04:53:28;4.78;;;3.08;;
34142;SDS011;20419;10.658;106.724;2023-03-23T04:55:56;4.53;;;2.90;;
34142;SDS011;20419;10.658;106.724;2023-03-23T04:58:23;4.55;;;2.90;;
34142;SDS011;20419;10.658;106.724;2023-03-23T05:00:50;4.53;;;2.85;;
34142;SDS011;20419;10.658;106.724;2023-03-23T05:03:17;4.22;;;2.92;;
34142;SDS011;20419;10.658;106.724;2023-03-23T05:05:45;4.18;;;2.85;;
34142;SDS011;20419;10.658;106.724;2023-03-23T05:08:18;4.95;;;2.70;;
34142;SDS011;20419;10.658;106.724;2023-03-23T05:10:52;5.30;;;3.10;;
34142;SDS011;20419;10.658;106.724;2023-03-23T05:13:20;3.92;;;2.63;;
34142;SDS011;20419;10.658;106.724;2023-03-23T05:15:47;4.25;;;2.90;;
34142;SDS011;20419;10.658;106.724;2023-03-23T05:18:15;4.00;;;2.60;;
34142;SDS011;20419;10.658;106.724;2023-03-23T05:20:42;4.25;;;2.90;;
34142;SDS011;20419;10.658;106.724;2023-03-23T05:23:12;4.32;;;2.63;;
34142;SDS011;20419;10.658;106.724;2023-03-23T05:25:39;4.00;;;2.78;;
34142;SDS011;20419;10.658;106.724;2023-03-23T05:28:10;5.90;;;3.03;;
34142;SDS011;20419;10.658;106.724;2023-03-23T05:30:37;3.83;;;2.65;;
34142;SDS011;20419;10.658;106.724;2023-03-23T05:33:05;3.58;;;2.38;;
34142;SDS011;20419;10.658;106.724;2023-03-23T05:35:32;4.32;;;2.60;;
34142;SDS011;20419;10.658;106.724;2023-03-23T05:37:59;4.68;;;2.80;;
34142;SDS011;20419;10.658;106.724;2023-03-23T05:40:27;4.65;;;3.05;;
34142;SDS011;20419;10.658;106.724;2023-03-23T05:42:55;5.25;;;2.95;;
34142;SDS011;20419;10.658;106.724;2023-03-23T05:47:50;4.43;;;2.63;;
34142;SDS011;20419;10.658;106.724;2023-03-23T05:50:17;4.18;;;2.65;;
34142;SDS011;20419;10.658;106.724;2023-03-23T05:52:44;3.78;;;2.80;;
34142;SDS011;20419;10.658;106.724;2023-03-23T05:55:11;3.70;;;2.67;;
34142;SDS011;20419;10.658;106.724;2023-03-23T05:57:39;4.03;;;2.80;;
34142;SDS011;20419;10.658;106.724;2023-03-23T06:00:06;3.97;;;2.50;;
34142;SDS011;20419;10.658;106.724;2023-03-23T06:02:48;3.38;;;2.28;;
34142;SDS011;20419;10.658;106.724;2023-03-23T06:05:16;3.37;;;2.13;;
34142;SDS011;20419;10.658;106.724;2023-03-23T06:07:43;4.10;;;2.72;;
34142;SDS011;20419;10.658;106.724;2023-03-23T06:10:10;4.75;;;2.75;;
34142;SDS011;20419;10.658;106.724;2023-03-23T06:12:38;3.30;;;2.22;;
34142;SDS011;20419;10.658;106.724;2023-03-23T06:15:06;3.35;;;2.35;;
34142;SDS011;20419;10.658;106.724;2023-03-23T06:17:34;4.13;;;2.42;;
34142;SDS011;20419;10.658;106.724;2023-03-23T06:20:03;3.90;;;2.42;;
34142;SDS011;20419;10.658;106.724;2023-03-23T06:22:38;3.60;;;2.53;;
34142;SDS011;20419;10.658;106.724;2023-03-23T06:25:06;3.63;;;2.17;;
34142;SDS011;20419;10.658;106.724;2023-03-23T06:27:33;3.70;;;2.55;;
34142;SDS011;20419;10.658;106.724;2023-03-23T06:30:01;3.92;;;2.38;;
34142;SDS011;20419;10.658;106.724;2023-03-23T06:32:28;3.92;;;2.53;;
34142;SDS011;20419;10.658;106.724;2023-03-23T06:34:56;3.50;;;2.40;;
34142;SDS011;20419;10.658;106.724;2023-03-23T06:37:23;4.70;;;2.55;;
34142;SDS011;20419;10.658;106.724;2023-03-23T06:39:50;3.45;;;2.42;;
34142;SDS011;20419;10.658;106.724;2023-03-23T06:42:17;4.72;;;2.47;;
34142;SDS011;20419;10.658;106.724;2023-03-23T06:44:44;4.57;;;2.80;;
34142;SDS011;20419;10.658;106.724;2023-03-23T06:47:11;4.30;;;2.47;;
34142;SDS011;20419;10.658;106.724;2023-03-23T06:49:38;4.03;;;2.60;;
34142;SDS011;20419;10.658;106.724;2023-03-23T06:52:06;3.60;;;2.40;;
34142;SDS011;20419;10.658;106.724;2023-03-23T06:54:33;3.15;;;2.28;;
34142;SDS011;20419;10.658;106.724;2023-03-23T06:57:01;3.92;;;2.50;;
34142;SDS011;20419;10.658;106.724;2023-03-23T06:59:28;3.80;;;2.30;;
34142;SDS011;20419;10.658;106.724;2023-03-23T07:01:55;4.57;;;2.75;;
34142;SDS011;20419;10.658;106.724;2023-03-23T07:04:22;3.75;;;2.50;;
34142;SDS011;20419;10.658;106.724;2023-03-23T07:06:49;4.38;;;2.50;;
34142;SDS011;20419;10.658;106.724;2023-03-23T07:09:16;3.63;;;2.55;;
34142;SDS011;20419;10.658;106.724;2023-03-23T07:11:43;4.47;;;2.47;;
34142;SDS011;20419;10.658;106.724;2023-03-23T07:14:13;3.65;;;2.40;;
34142;SDS011;20419;10.658;106.724;2023-03-23T07:16:40;4.18;;;2.78;;
34142;SDS011;20419;10.658;106.724;2023-03-23T07:19:07;3.33;;;2.37;;
34142;SDS011;20419;10.658;106.724;2023-03-23T07:21:34;4.10;;;2.60;;
34142;SDS011;20419;10.658;106.724;2023-03-23T07:24:02;3.67;;;2.38;;
34142;SDS011;20419;10.658;106.724;2023-03-23T07:26:29;4.03;;;2.67;;
34142;SDS011;20419;10.658;106.724;2023-03-23T07:28:55;3.83;;;2.60;;
34142;SDS011;20419;10.658;106.724;2023-03-23T07:31:22;4.45;;;2.40;;
34142;SDS011;20419;10.658;106.724;2023-03-23T07:33:49;3.80;;;2.40;;
34142;SDS011;20419;10.658;106.724;2023-03-23T07:36:16;3.67;;;2.42;;
34142;SDS011;20419;10.658;106.724;2023-03-23T07:38:43;4.05;;;2.70;;
34142;SDS011;20419;10.658;106.724;2023-03-23T07:41:10;3.80;;;2.30;;
34142;SDS011;20419;10.658;106.724;2023-03-23T07:43:38;3.60;;;2.55;;
34142;SDS011;20419;10.658;106.724;2023-03-23T07:46:04;4.00;;;2.85;;
34142;SDS011;20419;10.658;106.724;2023-03-23T07:48:31;4.32;;;3.13;;
34142;SDS011;20419;10.658;106.724;2023-03-23T07:50:58;3.90;;;2.22;;
34142;SDS011;20419;10.658;106.724;2023-03-23T07:53:25;4.68;;;2.80;;
34142;SDS011;20419;10.658;106.724;2023-03-23T07:55:52;4.30;;;3.10;;
34142;SDS011;20419;10.658;106.724;2023-03-23T07:58:19;4.20;;;2.70;;
34142;SDS011;20419;10.658;106.724;2023-03-23T08:00:46;3.30;;;2.10;;
34142;SDS011;20419;10.658;106.724;2023-03-23T08:03:14;3.78;;;2.33;;
34142;SDS011;20419;10.658;106.724;2023-03-23T08:05:41;3.83;;;2.72;;
34142;SDS011;20419;10.658;106.724;2023-03-23T08:08:09;3.67;;;2.47;;
34142;SDS011;20419;10.658;106.724;2023-03-23T08:10:36;4.03;;;2.97;;
34142;SDS011;20419;10.658;106.724;2023-03-23T08:13:03;3.80;;;2.47;;
34142;SDS011;20419;10.658;106.724;2023-03-23T08:15:31;3.60;;;2.20;;
34142;SDS011;20419;10.658;106.724;2023-03-23T08:18:02;4.10;;;2.50;;
34142;SDS011;20419;10.658;106.724;2023-03-23T08:20:30;3.60;;;2.33;;
34142;SDS011;20419;10.658;106.724;2023-03-23T08:22:58;3.25;;;2.20;;
34142;SDS011;20419;10.658;106.724;2023-03-23T08:25:25;4.22;;;2.85;;
34142;SDS011;20419;10.658;106.724;2023-03-23T08:27:53;4.35;;;2.75;;
34142;SDS011;20419;10.658;106.724;2023-03-23T08:30:20;3.63;;;2.60;;
34142;SDS011;20419;10.658;106.724;2023-03-23T08:32:54;4.85;;;2.78;;
34142;SDS011;20419;10.658;106.724;2023-03-23T08:35:21;3.78;;;2.60;;
34142;SDS011;20419;10.658;106.724;2023-03-23T08:37:49;4.13;;;2.80;;
34142;SDS011;20419;10.658;106.724;2023-03-23T08:40:20;4.72;;;2.95;;
34142;SDS011;20419;10.658;106.724;2023-03-23T08:42:48;4.27;;;2.90;;
34142;SDS011;20419;10.658;106.724;2023-03-23T08:45:16;4.00;;;2.60;;
34142;SDS011;20419;10.658;106.724;2023-03-23T08:47:43;4.00;;;2.63;;
34142;SDS011;20419;10.658;106.724;2023-03-23T08:50:13;4.10;;;2.40;;
34142;SDS011;20419;10.658;106.724;2023-03-23T08:52:40;4.40;;;2.95;;
34142;SDS011;20419;10.658;106.724;2023-03-23T08:55:09;4.63;;;3.22;;
34142;SDS011;20419;10.658;106.724;2023-03-23T08:57:36;3.75;;;2.45;;
34142;SDS011;20419;10.658;106.724;2023-03-23T09:00:05;3.83;;;2.90;;
34142;SDS011;20419;10.658;106.724;2023-03-23T09:02:45;4.13;;;2.75;;
34142;SDS011;20419;10.658;106.724;2023-03-23T09:05:13;3.85;;;2.60;;
34142;SDS011;20419;10.658;106.724;2023-03-23T09:07:42;3.88;;;2.75;;
34142;SDS011;20419;10.658;106.724;2023-03-23T09:10:09;3.67;;;2.65;;
34142;SDS011;20419;10.658;106.724;2023-03-23T09:12:36;3.97;;;2.70;;
34142;SDS011;20419;10.658;106.724;2023-03-23T09:15:04;4.90;;;2.85;;
34142;SDS011;20419;10.658;106.724;2023-03-23T09:17:44;4.68;;;2.80;;
34142;SDS011;20419;10.658;106.724;2023-03-23T09:20:12;4.75;;;2.72;;
34142;SDS011;20419;10.658;106.724;2023-03-23T09:22:41;4.50;;;2.88;;
34142;SDS011;20419;10.658;106.724;2023-03-23T09:25:10;5.75;;;3.13;;
34142;SDS011;20419;10.658;106.724;2023-03-23T09:27:37;4.82;;;2.63;;
34142;SDS011;20419;10.658;106.724;2023-03-23T09:30:08;4.00;;;2.63;;
34142;SDS011;20419;10.658;106.724;2023-03-23T09:32:36;3.83;;;2.92;;
34142;SDS011;20419;10.658;106.724;2023-03-23T09:35:05;4.32;;;2.90;;
34142;SDS011;20419;10.658;106.724;2023-03-23T09:37:38;5.18;;;2.80;;
34142;SDS011;20419;10.658;106.724;2023-03-23T09:40:06;4.37;;;2.80;;
34142;SDS011;20419;10.658;106.724;2023-03-23T09:42:41;4.47;;;2.83;;
34142;SDS011;20419;10.658;106.724;2023-03-23T09:47:40;3.58;;;2.50;;
34142;SDS011;20419;10.658;106.724;2023-03-23T09:50:15;3.95;;;2.67;;
34142;SDS011;20419;10.658;106.724;2023-03-23T09:55:15;4.45;;;2.67;;
34142;SDS011;20419;10.658;106.724;2023-03-23T10:00:20;4.30;;;2.65;;
34142;SDS011;20419;10.658;106.724;2023-03-23T10:05:44;3.53;;;2.33;;
34142;SDS011;20419;10.658;106.724;2023-03-23T10:08:20;4.18;;;2.63;;
34142;SDS011;20419;10.658;106.724;2023-03-23T10:15:53;3.83;;;3.03;;
34142;SDS011;20419;10.658;106.724;2023-03-23T10:18:29;4.57;;;2.60;;
34142;SDS011;20419;10.658;106.724;2023-03-23T10:20:58;4.35;;;2.63;;
34142;SDS011;20419;10.658;106.724;2023-03-23T10:23:38;3.78;;;2.53;;
34142;SDS011;20419;10.658;106.724;2023-03-23T10:28:36;4.20;;;2.95;;
34142;SDS011;20419;10.658;106.724;2023-03-23T10:31:04;4.25;;;2.67;;
34142;SDS011;20419;10.658;106.724;2023-03-23T10:33:45;4.53;;;2.85;;
34142;SDS011;20419;10.658;106.724;2023-03-23T10:36:18;5.15;;;2.97;;
34142;SDS011;20419;10.658;106.724;2023-03-23T10:41:17;3.33;;;2.45;;
34142;SDS011;20419;10.658;106.724;2023-03-23T10:43:45;3.90;;;2.67;;
34142;SDS011;20419;10.658;106.724;2023-03-23T10:46:23;4.60;;;2.65;;
34142;SDS011;20419;10.658;106.724;2023-03-23T10:48:53;3.53;;;2.33;;
34142;SDS011;20419;10.658;106.724;2023-03-23T10:53:51;4.72;;;2.72;;
34142;SDS011;20419;10.658;106.724;2023-03-23T10:56:27;4.05;;;2.80;;
34142;SDS011;20419;10.658;106.724;2023-03-23T10:58:55;4.28;;;2.63;;
34142;SDS011;20419;10.658;106.724;2023-03-23T11:01:32;5.53;;;2.40;;
34142;SDS011;20419;10.658;106.724;2023-03-23T11:04:00;4.60;;;2.97;;
34142;SDS011;20419;10.658;106.724;2023-03-23T11:06:29;3.97;;;2.72;;
34142;SDS011;20419;10.658;106.724;2023-03-23T11:09:03;3.80;;;2.50;;
34142;SDS011;20419;10.658;106.724;2023-03-23T11:11:31;3.67;;;2.28;;
34142;SDS011;20419;10.658;106.724;2023-03-23T11:14:00;3.63;;;2.42;;
34142;SDS011;20419;10.658;106.724;2023-03-23T11:16:31;3.67;;;2.60;;
34142;SDS011;20419;10.658;106.724;2023-03-23T11:19:00;3.65;;;2.53;;
34142;SDS011;20419;10.658;106.724;2023-03-23T11:21:27;3.45;;;2.17;;
34142;SDS011;20419;10.658;106.724;2023-03-23T11:23:55;4.38;;;2.90;;
34142;SDS011;20419;10.658;106.724;2023-03-23T11:26:28;4.45;;;2.95;;
34142;SDS011;20419;10.658;106.724;2023-03-23T11:28:57;3.88;;;2.42;;
34142;SDS011;20419;10.658;106.724;2023-03-23T11:37:08;3.30;;;2.20;;
34142;SDS011;20419;10.658;106.724;2023-03-23T11:42:22;3.70;;;2.45;;
34142;SDS011;20419;10.658;106.724;2023-03-23T11:44:54;4.07;;;2.35;;
34142;SDS011;20419;10.658;106.724;2023-03-23T11:50:14;3.42;;;2.30;;
34142;SDS011;20419;10.658;106.724;2023-03-23T11:52:44;3.30;;;2.10;;
34142;SDS011;20419;10.658;106.724;2023-03-23T11:55:15;3.35;;;2.15;;
34142;SDS011;20419;10.658;106.724;2023-03-23T11:57:43;4.07;;;2.63;;
34142;SDS011;20419;10.658;106.724;2023-03-23T12:00:14;3.67;;;2.38;;
34142;SDS011;20419;10.658;106.724;2023-03-23T12:05:47;3.42;;;2.30;;
34142;SDS011;20419;10.658;106.724;2023-03-23T12:21:19;3.60;;;2.40;;
34142;SDS011;20419;10.658;106.724;2023-03-23T12:26:39;3.47;;;2.33;;
34142;SDS011;20419;10.658;106.724;2023-03-23T12:29:23;4.40;;;2.42;;
34142;SDS011;20419;10.658;106.724;2023-03-23T12:37:35;3.85;;;2.38;;
34142;SDS011;20419;10.658;106.724;2023-03-23T12:45:13;3.50;;;2.22;;
34142;SDS011;20419;10.658;106.724;2023-03-23T12:47:50;3.95;;;2.25;;
34142;SDS011;20419;10.658;106.724;2023-03-23T12:50:24;3.58;;;2.10;;
34142;SDS011;20419;10.658;106.724;2023-03-23T12:52:56;4.22;;;2.33;;
34142;SDS011;20419;10.658;106.724;2023-03-23T12:55:36;3.20;;;2.22;;
34142;SDS011;20419;10.658;106.724;2023-03-23T13:03:13;3.33;;;2.20;;
34142;SDS011;20419;10.658;106.724;2023-03-23T13:05:46;3.70;;;2.30;;
34142;SDS011;20419;10.658;106.724;2023-03-23T13:08:31;4.40;;;2.60;;
34142;SDS011;20419;10.658;106.724;2023-03-23T13:11:01;3.72;;;2.30;;
34142;SDS011;20419;10.658;106.724;2023-03-23T13:24:27;3.58;;;2.13;;
34142;SDS011;20419;10.658;106.724;2023-03-23T13:26:55;3.03;;;2.20;;
34142;SDS011;20419;10.658;106.724;2023-03-23T13:29:28;3.08;;;2.15;;
34142;SDS011;20419;10.658;106.724;2023-03-23T13:32:04;3.28;;;2.05;;
34142;SDS011;20419;10.658;106.724;2023-03-23T13:34:36;4.55;;;2.33;;
34142;SDS011;20419;10.658;106.724;2023-03-23T13:37:06;3.50;;;2.15;;
34142;SDS011;20419;10.658;106.724;2023-03-23T13:39:52;3.30;;;2.25;;
34142;SDS011;20419;10.658;106.724;2023-03-23T13:42:28;3.50;;;2.20;;
34142;SDS011;20419;10.658;106.724;2023-03-23T13:47:39;4.75;;;1.98;;
34142;SDS011;20419;10.658;106.724;2023-03-23T13:55:38;3.40;;;2.03;;
34142;SDS011;20419;10.658;106.724;2023-03-23T14:00:43;3.70;;;1.88;;
34142;SDS011;20419;10.658;106.724;2023-03-23T14:03:14;3.15;;;1.90;;
34142;SDS011;20419;10.658;106.724;2023-03-23T14:05:49;5.00;;;2.30;;
34142;SDS011;20419;10.658;106.724;2023-03-23T14:08:21;4.57;;;2.08;;
34142;SDS011;20419;10.658;106.724;2023-03-23T14:10:59;3.20;;;2.05;;
34142;SDS011;20419;10.658;106.724;2023-03-23T14:16:40;3.67;;;1.85;;
34142;SDS011;20419;10.658;106.724;2023-03-23T14:19:26;3.55;;;1.90;;
34142;SDS011;20419;10.658;106.724;2023-03-23T14:21:59;3.78;;;2.20;;
34142;SDS011;20419;10.658;106.724;2023-03-23T14:24:27;3.97;;;2.25;;
34142;SDS011;20419;10.658;106.724;2023-03-23T14:29:45;3.50;;;2.15;;
34142;SDS011;20419;10.658;106.724;2023-03-23T14:32:16;3.40;;;2.20;;
34142;SDS011;20419;10.658;106.724;2023-03-23T14:34:46;3.95;;;1.95;;
34142;SDS011;20419;10.658;106.724;2023-03-23T14:37:16;3.42;;;2.30;;
34142;SDS011;20419;10.658;106.724;2023-03-23T14:40:00;3.88;;;2.15;;
34142;SDS011;20419;10.658;106.724;2023-03-23T14:42:33;7.63;;;3.22;;
34142;SDS011;20419;10.658;106.724;2023-03-23T14:45:01;3.97;;;2.20;;
34142;SDS011;20419;10.658;106.724;2023-03-23T14:47:40;9.93;;;3.72;;
34142;SDS011;20419;10.658;106.724;2023-03-23T14:50:26;9.15;;;3.75;;
34142;SDS011;20419;10.658;106.724;2023-03-23T14:52:57;8.95;;;4.10;;
34142;SDS011;20419;10.658;106.724;2023-03-23T14:55:30;7.95;;;3.15;;
34142;SDS011;20419;10.658;106.724;2023-03-23T14:58:05;6.43;;;3.35;;
34142;SDS011;20419;10.658;106.724;2023-03-23T15:00:38;7.47;;;3.10;;
34142;SDS011;20419;10.658;106.724;2023-03-23T15:03:13;7.65;;;3.72;;
34142;SDS011;20419;10.658;106.724;2023-03-23T15:05:46;7.18;;;3.30;;
34142;SDS011;20419;10.658;106.724;2023-03-23T15:08:30;7.45;;;2.80;;
34142;SDS011;20419;10.658;106.724;2023-03-23T15:13:45;6.32;;;3.17;;
34142;SDS011;20419;10.658;106.724;2023-03-23T15:16:21;6.20;;;2.83;;
34142;SDS011;20419;10.658;106.724;2023-03-23T15:19:22;9.60;;;3.35;;
34142;SDS011;20419;10.658;106.724;2023-03-23T15:21:56;5.53;;;2.85;;
34142;SDS011;20419;10.658;106.724;2023-03-23T15:26:53;5.18;;;2.72;;
34142;SDS011;20419;10.658;106.724;2023-03-23T15:29:21;5.03;;;3.00;;
34142;SDS011;20419;10.658;106.724;2023-03-23T15:31:53;10.43;;;3.30;;
34142;SDS011;20419;10.658;106.724;2023-03-23T15:37:00;7.85;;;3.20;;
34142;SDS011;20419;10.658;106.724;2023-03-23T15:39:28;7.82;;;2.95;;
34142;SDS011;20419;10.658;106.724;2023-03-23T15:41:56;5.80;;;2.73;;
34142;SDS011;20419;10.658;106.724;2023-03-23T15:44:26;6.70;;;3.20;;
34142;SDS011;20419;10.658;106.724;2023-03-23T15:47:03;5.95;;;2.85;;
34142;SDS011;20419;10.658;106.724;2023-03-23T15:49:31;4.90;;;2.70;;
34142;SDS011;20419;10.658;106.724;2023-03-23T15:51:58;5.53;;;2.72;;
34142;SDS011;20419;10.658;106.724;2023-03-23T15:54:28;7.57;;;3.03;;
34142;SDS011;20419;10.658;106.724;2023-03-23T15:56:56;7.15;;;2.80;;
34142;SDS011;20419;10.658;106.724;2023-03-23T15:59:23;5.70;;;3.15;;
34142;SDS011;20419;10.658;106.724;2023-03-23T16:01:50;5.07;;;2.90;;
34142;SDS011;20419;10.658;106.724;2023-03-23T16:04:17;6.07;;;2.97;;
34142;SDS011;20419;10.658;106.724;2023-03-23T16:06:45;7.15;;;2.78;;
34142;SDS011;20419;10.658;106.724;2023-03-23T16:09:16;4.95;;;2.83;;
34142;SDS011;20419;10.658;106.724;2023-03-23T16:11:43;7.07;;;2.83;;
34142;SDS011;20419;10.658;106.724;2023-03-23T16:14:11;5.80;;;2.72;;
34142;SDS011;20419;10.658;106.724;2023-03-23T16:16:42;5.90;;;2.92;;
34142;SDS011;20419;10.658;106.724;2023-03-23T16:19:11;6.93;;;2.72;;
34142;SDS011;20419;10.658;106.724;2023-03-23T16:21:38;7.20;;;3.05;;
34142;SDS011;20419;10.658;106.724;2023-03-23T16:24:05;5.40;;;2.90;;
34142;SDS011;20419;10.658;106.724;2023-03-23T16:26:33;6.30;;;2.55;;
34142;SDS011;20419;10.658;106.724;2023-03-23T16:29:00;6.53;;;3.05;;
34142;SDS011;20419;10.658;106.724;2023-03-23T16:31:27;5.22;;;2.90;;
34142;SDS011;20419;10.658;106.724;2023-03-23T16:33:54;7.35;;;3.22;;
34142;SDS011;20419;10.658;106.724;2023-03-23T16:36:21;4.28;;;2.22;;
34142;SDS011;20419;10.658;106.724;2023-03-23T16:38:49;4.80;;;2.33;;
34142;SDS011;20419;10.658;106.724;2023-03-23T16:41:16;7.13;;;3.10;;
34142;SDS011;20419;10.658;106.724;2023-03-23T16:43:42;4.40;;;2.40;;
34142;SDS011;20419;10.658;106.724;2023-03-23T16:46:10;4.93;;;2.83;;
34142;SDS011;20419;10.658;106.724;2023-03-23T16:48:38;5.72;;;2.97;;
34142;SDS011;20419;10.658;106.724;2023-03-23T16:51:06;4.43;;;2.25;;
34142;SDS011;20419;10.658;106.724;2023-03-23T16:53:33;5.18;;;2.75;;